createdAt,value
2023-04-13T00:01:19.489Z,100.00
2023-04-13T00:03:47.216Z,100.00
2023-04-13T00:06:15.044Z,100.00
2023-04-13T00:08:45.032Z,100.00
2023-04-13T00:11:12.916Z,100.00
2023-04-13T00:13:43.047Z,100.00
2023-04-13T00:16:12.526Z,100.00
2023-04-13T00:18:40.248Z,100.00
2023-04-13T00:21:08.874Z,100.00
2023-04-13T00:23:37.010Z,100.00
2023-04-13T00:26:06.692Z,100.00
2023-04-13T00:28:34.446Z,100.00
2023-04-13T00:31:02.704Z,100.00
2023-04-13T00:33:30.493Z,100.00
2023-04-13T00:35:58.143Z,100.00
2023-04-13T00:38:27.298Z,100.00
2023-04-13T00:40:55.741Z,100.00
2023-04-13T00:43:25.266Z,100.00
2023-04-13T00:45:53.476Z,100.00
2023-04-13T00:48:21.810Z,100.00
2023-04-13T00:50:49.614Z,100.00
2023-04-13T00:53:17.349Z,100.00
2023-04-13T00:55:45.275Z,100.00
2023-04-13T00:58:14.299Z,100.00
2023-04-13T01:00:43.903Z,100.00
2023-04-13T01:03:12.466Z,100.00
2023-04-13T01:05:50.242Z,100.00
2023-04-13T01:08:23.982Z,100.00
2023-04-13T01:10:55.591Z,100.00
2023-04-13T01:13:29.171Z,100.00
2023-04-13T01:16:03.771Z,100.00
2023-04-13T01:18:35.482Z,100.00
2023-04-13T01:21:04.572Z,100.00
2023-04-13T01:23:50.799Z,100.00
2023-04-13T01:26:18.711Z,100.00
2023-04-13T01:28:48.839Z,100.00
2023-04-13T01:31:18.291Z,100.00
2023-04-13T01:33:46.844Z,100.00
2023-04-13T01:36:15.424Z,100.00
2023-04-13T01:38:43.518Z,100.00
2023-04-13T01:41:11.213Z,100.00
2023-04-13T01:43:38.950Z,100.00
2023-04-13T01:46:11.336Z,100.00
2023-04-13T01:48:46.308Z,100.00
2023-04-13T01:51:19.305Z,100.00
2023-04-13T01:53:53.470Z,100.00
2023-04-13T01:56:22.951Z,100.00
2023-04-13T01:58:56.209Z,100.00
2023-04-13T02:01:25.441Z,100.00
2023-04-13T02:03:53.651Z,100.00
2023-04-13T02:06:21.733Z,100.00
2023-04-13T02:08:52.349Z,100.00
2023-04-13T02:11:20.543Z,100.00
2023-04-13T02:13:48.330Z,100.00
2023-04-13T02:16:16.129Z,100.00
2023-04-13T02:18:46.547Z,100.00
2023-04-13T02:21:14.480Z,100.00
2023-04-13T02:23:42.503Z,100.00
2023-04-13T02:26:13.013Z,100.00
2023-04-13T02:28:41.720Z,100.00
2023-04-13T02:31:09.500Z,100.00
2023-04-13T02:33:37.635Z,100.00
2023-04-13T02:36:07.959Z,100.00
2023-04-13T02:38:37.268Z,100.00
2023-04-13T02:41:06.518Z,100.00
2023-04-13T02:43:35.606Z,100.00
2023-04-13T02:46:03.422Z,100.00
2023-04-13T02:48:31.118Z,100.00
2023-04-13T02:50:58.779Z,100.00
2023-04-13T02:53:28.149Z,100.00
2023-04-13T02:55:56.503Z,100.00
2023-04-13T02:58:25.382Z,100.00
2023-04-13T03:00:53.696Z,100.00
2023-04-13T03:03:21.341Z,100.00
2023-04-13T03:05:50.351Z,100.00
2023-04-13T03:08:18.764Z,100.00
2023-04-13T03:10:47.800Z,100.00
2023-04-13T03:13:16.033Z,100.00
2023-04-13T03:15:44.474Z,100.00
2023-04-13T03:18:12.146Z,100.00
2023-04-13T03:20:39.915Z,100.00
2023-04-13T03:23:07.647Z,100.00
2023-04-13T03:25:35.311Z,100.00
2023-04-13T03:28:04.362Z,100.00
2023-04-13T03:30:32.063Z,100.00
2023-04-13T03:32:59.775Z,100.00
2023-04-13T03:35:27.508Z,100.00
2023-04-13T03:37:56.119Z,100.00
2023-04-13T03:40:23.897Z,100.00
2023-04-13T03:42:51.683Z,100.00
2023-04-13T03:45:21.064Z,100.00
2023-04-13T03:47:48.820Z,100.00
2023-04-13T03:50:16.964Z,100.00
2023-04-13T03:52:44.650Z,100.00
2023-04-13T03:55:13.122Z,100.00
2023-04-13T03:57:47.651Z,100.00
2023-04-13T04:00:16.119Z,100.00
2023-04-13T04:02:45.550Z,100.00
2023-04-13T04:05:13.779Z,100.00
2023-04-13T04:07:41.519Z,100.00
2023-04-13T04:10:10.450Z,100.00
2023-04-13T04:12:38.119Z,100.00
2023-04-13T04:15:06.756Z,100.00
2023-04-13T04:17:34.562Z,100.00
2023-04-13T04:20:06.260Z,100.00
2023-04-13T04:22:34.826Z,100.00
2023-04-13T04:25:02.567Z,100.00
2023-04-13T04:27:31.519Z,100.00
2023-04-13T04:30:00.941Z,100.00
2023-04-13T04:32:28.758Z,100.00
2023-04-13T04:34:56.582Z,100.00
2023-04-13T04:37:26.052Z,100.00
2023-04-13T04:39:54.257Z,100.00
2023-04-13T04:42:21.938Z,100.00
2023-04-13T04:44:50.260Z,100.00
2023-04-13T04:47:19.592Z,100.00
2023-04-13T04:49:47.509Z,100.00
2023-04-13T04:52:15.213Z,100.00
2023-04-13T04:54:44.254Z,100.00
2023-04-13T04:57:12.371Z,100.00
2023-04-13T04:59:40.844Z,100.00
2023-04-13T05:02:08.923Z,100.00
2023-04-13T05:04:36.714Z,100.00
2023-04-13T05:07:04.400Z,100.00
2023-04-13T05:09:32.323Z,100.00
2023-04-13T05:12:01.421Z,100.00
2023-04-13T05:14:29.359Z,100.00
2023-04-13T05:16:57.566Z,100.00
2023-04-13T05:19:25.607Z,100.00
2023-04-13T05:21:53.465Z,100.00
2023-04-13T05:24:21.524Z,100.00
2023-04-13T05:26:49.337Z,100.00
2023-04-13T05:29:18.850Z,100.00
2023-04-13T05:31:46.717Z,100.00
2023-04-13T05:34:14.706Z,100.00
2023-04-13T05:36:42.649Z,100.00
2023-04-13T05:39:10.931Z,100.00
2023-04-13T05:41:38.842Z,100.00
2023-04-13T05:44:06.909Z,100.00
2023-04-13T05:46:36.545Z,100.00
2023-04-13T05:49:04.595Z,100.00
2023-04-13T05:51:33.003Z,100.00
2023-04-13T05:54:01.002Z,100.00
2023-04-13T05:56:29.812Z,100.00
2023-04-13T05:58:57.849Z,100.00
2023-04-13T06:01:25.868Z,100.00
2023-04-13T06:03:55.998Z,100.00
2023-04-13T06:06:24.952Z,100.00
2023-04-13T06:08:53.825Z,100.00
2023-04-13T06:11:22.007Z,100.00
2023-04-13T06:13:50.040Z,100.00
2023-04-13T06:16:18.764Z,100.00
2023-04-13T06:18:46.628Z,100.00
2023-04-13T06:21:15.909Z,100.00
2023-04-13T06:23:45.790Z,100.00
2023-04-13T06:26:13.690Z,100.00
2023-04-13T06:28:42.845Z,100.00
2023-04-13T06:31:13.674Z,100.00
2023-04-13T06:33:41.904Z,100.00
2023-04-13T06:36:10.506Z,100.00
2023-04-13T06:38:39.700Z,100.00
2023-04-13T06:41:08.046Z,100.00
2023-04-13T06:43:35.894Z,100.00
2023-04-13T06:46:05.279Z,100.00
2023-04-13T06:48:33.391Z,100.00
2023-04-13T06:51:01.268Z,100.00
2023-04-13T06:53:29.128Z,100.00
2023-04-13T06:55:58.427Z,100.00
2023-04-13T06:58:27.104Z,100.00
2023-04-13T07:00:55.016Z,100.00
2023-04-13T07:03:23.102Z,100.00
2023-04-13T07:05:51.155Z,100.00
2023-04-13T07:08:19.591Z,100.00
2023-04-13T07:10:47.956Z,100.00
2023-04-13T07:13:19.874Z,100.00
2023-04-13T07:15:47.843Z,100.00
2023-04-13T07:18:15.776Z,100.00
2023-04-13T07:20:43.586Z,100.00
2023-04-13T07:23:11.517Z,100.00
2023-04-13T07:25:39.354Z,100.00
2023-04-13T07:28:07.221Z,100.00
2023-04-13T07:30:36.852Z,100.00
2023-04-13T07:33:04.873Z,100.00
2023-04-13T07:35:32.730Z,100.00
2023-04-13T07:38:04.036Z,100.00
2023-04-13T07:40:32.196Z,100.00
2023-04-13T07:42:59.962Z,100.00
2023-04-13T07:45:31.020Z,100.00
2023-04-13T07:48:00.782Z,100.00
2023-04-13T07:50:28.689Z,100.00
2023-04-13T07:52:56.550Z,100.00
2023-04-13T07:55:24.414Z,100.00
2023-04-13T07:57:52.237Z,100.00
2023-04-13T08:00:22.985Z,100.00
2023-04-13T08:02:51.627Z,100.00
2023-04-13T08:05:21.257Z,100.00
2023-04-13T08:07:49.545Z,100.00
2023-04-13T08:10:17.680Z,100.00
2023-04-13T08:12:46.038Z,100.00
2023-04-13T08:15:14.340Z,100.00
2023-04-13T08:17:42.341Z,100.00
2023-04-13T08:20:11.023Z,100.00
2023-04-13T08:22:40.256Z,100.00
2023-04-13T08:25:08.563Z,100.00
2023-04-13T08:27:36.420Z,100.00
2023-04-13T08:30:06.233Z,100.00
2023-04-13T08:32:34.382Z,100.00
2023-04-13T08:35:06.832Z,100.00
2023-04-13T08:37:34.807Z,100.00
2023-04-13T08:40:07.466Z,100.00
2023-04-13T08:42:36.657Z,100.00
2023-04-13T08:45:04.995Z,100.00
2023-04-13T08:47:32.973Z,100.00
2023-04-13T08:50:02.841Z,100.00
2023-04-13T08:52:31.131Z,100.00
2023-04-13T08:55:00.945Z,100.00
2023-04-13T08:57:31.333Z,100.00
2023-04-13T09:00:00.329Z,100.00
2023-04-13T09:02:33.598Z,100.00
2023-04-13T09:05:06.165Z,100.00
2023-04-13T09:07:36.884Z,100.00
2023-04-13T09:10:07.983Z,100.00
2023-04-13T09:12:37.442Z,100.00
2023-04-13T09:15:07.229Z,100.00
2023-04-13T09:17:35.600Z,100.00
2023-04-13T09:20:14.776Z,100.00
2023-04-13T09:22:43.017Z,100.00
2023-04-13T09:25:21.508Z,100.00
2023-04-13T09:27:52.037Z,100.00
2023-04-13T09:30:22.135Z,100.00
2023-04-13T09:32:50.997Z,100.00
2023-04-13T09:35:18.960Z,100.00
2023-04-13T09:37:48.056Z,100.00
2023-04-13T09:40:18.874Z,100.00
2023-04-13T09:42:57.497Z,96.71
2023-04-13T09:45:25.534Z,100.00
2023-04-13T09:47:56.002Z,100.00
2023-04-13T09:50:28.366Z,100.00
2023-04-13T09:53:04.519Z,100.00
2023-04-13T09:55:34.046Z,100.00
2023-04-13T09:58:11.978Z,100.00
2023-04-13T10:00:42.618Z,100.00
2023-04-13T10:03:12.381Z,100.00
2023-04-13T10:05:55.337Z,100.00
2023-04-13T10:08:36.672Z,99.48
2023-04-13T10:11:05.457Z,89.15
2023-04-13T10:13:39.165Z,89.21
2023-04-13T10:16:22.916Z,87.03
2023-04-13T10:19:00.668Z,84.97
2023-04-13T10:21:33.334Z,84.91
2023-04-13T10:24:01.492Z,88.15
2023-04-13T10:26:32.761Z,90.88
2023-04-13T10:29:02.835Z,90.29
2023-04-13T10:31:39.242Z,91.85
2023-04-13T10:34:07.676Z,88.89
2023-04-13T10:36:43.162Z,90.56
2023-04-13T10:39:11.378Z,84.95
2023-04-13T10:41:39.442Z,88.58
2023-04-13T10:44:10.557Z,85.40
2023-04-13T10:46:39.054Z,84.24
2023-04-13T10:49:07.259Z,89.07
2023-04-13T10:51:41.450Z,86.41
2023-04-13T10:54:10.668Z,87.57
2023-04-13T10:56:38.779Z,88.99
2023-04-13T10:59:08.245Z,91.42
2023-04-13T11:01:36.482Z,90.81
2023-04-13T11:04:07.717Z,90.46
2023-04-13T11:06:38.937Z,93.86
2023-04-13T11:09:08.405Z,92.39
2023-04-13T11:11:37.446Z,97.85
2023-04-13T11:14:05.577Z,98.40
2023-04-13T11:16:45.119Z,99.84
2023-04-13T11:19:13.070Z,100.00
2023-04-13T11:21:40.974Z,100.00
2023-04-13T11:24:10.136Z,100.00
2023-04-13T11:26:38.941Z,99.19
2023-04-13T11:29:18.804Z,94.89
2023-04-13T11:31:48.111Z,94.58
2023-04-13T11:34:25.797Z,100.00
2023-04-13T11:37:05.564Z,100.00
2023-04-13T11:39:46.499Z,100.00
2023-04-13T11:42:14.581Z,100.00
2023-04-13T11:44:45.678Z,100.00
2023-04-13T11:47:18.912Z,100.00
2023-04-13T11:49:48.165Z,100.00
2023-04-13T11:52:17.393Z,100.00
2023-04-13T11:54:45.886Z,100.00
2023-04-13T11:57:13.938Z,100.00
2023-04-13T11:59:42.107Z,100.00
2023-04-13T12:02:20.849Z,100.00
2023-04-13T12:04:51.894Z,100.00
2023-04-13T12:07:20.976Z,100.00
2023-04-13T12:15:10.805Z,100.00
2023-04-13T12:17:49.783Z,100.00
2023-04-13T12:20:20.494Z,100.00
2023-04-13T12:22:57.794Z,100.00
2023-04-13T12:28:04.928Z,100.00
2023-04-13T12:30:34.434Z,100.00
2023-04-13T12:33:02.508Z,100.00
2023-04-13T12:35:31.760Z,100.00
2023-04-13T12:38:00.339Z,100.00
2023-04-13T12:40:28.237Z,100.00
2023-04-13T12:42:56.133Z,100.00
2023-04-13T12:45:24.005Z,100.00
2023-04-13T12:47:51.976Z,100.00
2023-04-13T12:50:19.867Z,100.00
2023-04-13T12:52:50.018Z,100.00
2023-04-13T12:55:18.333Z,100.00
2023-04-13T12:57:46.262Z,100.00
2023-04-13T13:00:15.954Z,100.00
2023-04-13T13:02:44.077Z,100.00
2023-04-13T13:05:12.164Z,100.00
2023-04-13T13:07:40.018Z,100.00
2023-04-13T13:10:25.986Z,100.00
2023-04-13T13:12:57.300Z,100.00
2023-04-13T13:15:25.418Z,100.00
2023-04-13T13:17:53.407Z,100.00
2023-04-13T13:20:21.463Z,100.00
2023-04-13T13:22:49.313Z,100.00
2023-04-13T13:25:18.697Z,100.00
2023-04-13T13:30:18.216Z,100.00
2023-04-13T13:32:46.118Z,100.00
2023-04-13T13:35:15.600Z,100.00
2023-04-13T13:37:43.429Z,100.00
2023-04-13T13:40:13.911Z,100.00
2023-04-13T13:45:14.148Z,100.00
2023-04-13T13:47:41.950Z,100.00
2023-04-13T13:50:11.145Z,100.00
2023-04-13T13:52:45.791Z,100.00
2023-04-13T13:55:20.612Z,100.00
2023-04-13T13:57:49.950Z,100.00
2023-04-13T14:00:19.758Z,100.00
2023-04-13T14:02:48.527Z,100.00
2023-04-13T14:05:16.573Z,100.00
2023-04-13T14:07:45.787Z,100.00
2023-04-13T14:10:14.209Z,100.00
2023-04-13T14:12:45.213Z,100.00
2023-04-13T14:15:15.078Z,100.00
2023-04-13T14:17:43.001Z,100.00
2023-04-13T14:20:12.012Z,100.00
2023-04-13T14:22:40.760Z,100.00
2023-04-13T14:25:10.609Z,100.00
2023-04-13T14:27:47.149Z,100.00
2023-04-13T14:30:17.588Z,100.00
2023-04-13T14:32:46.900Z,100.00
2023-04-13T14:35:15.436Z,100.00
2023-04-13T14:37:43.306Z,100.00
2023-04-13T14:40:14.514Z,100.00
2023-04-13T14:42:42.641Z,100.00
2023-04-13T14:45:12.501Z,100.00
2023-04-13T14:47:41.863Z,100.00
2023-04-13T14:50:10.898Z,100.00
2023-04-13T14:52:39.653Z,100.00
2023-04-13T14:55:09.004Z,100.00
2023-04-13T14:57:36.915Z,100.00
2023-04-13T15:00:08.476Z,100.00
2023-04-13T15:02:38.097Z,100.00
2023-04-13T15:05:09.761Z,100.00
2023-04-13T15:07:38.143Z,100.00
2023-04-13T15:10:08.508Z,100.00
2023-04-13T15:12:36.543Z,100.00
2023-04-13T15:15:04.916Z,100.00
2023-04-13T15:17:32.999Z,100.00
2023-04-13T15:20:01.113Z,100.00
2023-04-13T15:22:31.004Z,100.00
2023-04-13T15:24:58.905Z,100.00
2023-04-13T15:27:27.992Z,100.00
2023-04-13T15:29:59.743Z,100.00
2023-04-13T15:32:27.686Z,100.00
2023-04-13T15:34:56.388Z,100.00
2023-04-13T15:37:24.892Z,100.00
2023-04-13T15:39:55.331Z,100.00
2023-04-13T15:42:23.181Z,100.00
2023-04-13T15:44:51.061Z,100.00
2023-04-13T15:47:18.964Z,100.00
2023-04-13T15:49:46.805Z,100.00
2023-04-13T15:52:14.766Z,100.00
2023-04-13T15:54:42.653Z,100.00
2023-04-13T15:57:12.340Z,100.00
2023-04-13T15:59:40.368Z,100.00
2023-04-13T16:02:08.773Z,100.00
2023-04-13T16:04:36.753Z,100.00
2023-04-13T16:07:12.647Z,100.00
2023-04-13T16:09:43.792Z,100.00
2023-04-13T16:12:13.461Z,100.00
2023-04-13T16:14:45.101Z,100.00
2023-04-13T16:17:15.087Z,100.00
2023-04-13T16:19:47.107Z,100.00
2023-04-13T16:22:16.361Z,100.00
2023-04-13T16:24:44.238Z,100.00
2023-04-13T16:27:13.871Z,100.00
2023-04-13T16:29:43.465Z,100.00
2023-04-13T16:32:11.709Z,100.00
2023-04-13T16:34:39.682Z,100.00
2023-04-13T16:37:07.528Z,100.00
2023-04-13T16:39:35.560Z,100.00
2023-04-13T16:42:03.784Z,100.00
2023-04-13T16:44:33.301Z,100.00
2023-04-13T16:47:01.465Z,100.00
2023-04-13T16:49:29.379Z,100.00
2023-04-13T16:51:57.233Z,100.00
2023-04-13T16:54:25.187Z,100.00
2023-04-13T16:56:53.147Z,100.00
2023-04-13T16:59:21.310Z,100.00
2023-04-13T17:01:50.602Z,100.00
2023-04-13T17:04:18.645Z,100.00
2023-04-13T17:06:47.435Z,100.00
2023-04-13T17:09:15.264Z,100.00
2023-04-13T17:11:43.184Z,100.00
2023-04-13T17:14:11.161Z,100.00
2023-04-13T17:16:39.101Z,100.00
2023-04-13T17:19:08.488Z,100.00
2023-04-13T17:21:36.304Z,100.00
2023-04-13T17:24:04.546Z,100.00
2023-04-13T17:26:32.476Z,100.00
2023-04-13T17:29:00.741Z,100.00
2023-04-13T17:31:28.757Z,100.00
2023-04-13T17:33:56.443Z,100.00
2023-04-13T17:36:27.364Z,100.00
2023-04-13T17:38:55.019Z,100.00
2023-04-13T17:41:22.709Z,100.00
2023-04-13T17:43:50.401Z,100.00
2023-04-13T17:46:18.078Z,100.00
2023-04-13T17:48:45.756Z,100.00
2023-04-13T17:51:13.403Z,100.00
2023-04-13T17:53:42.460Z,100.00
2023-04-13T17:56:15.292Z,100.00
2023-04-13T17:58:42.986Z,100.00
2023-04-13T18:01:11.639Z,100.00
2023-04-13T18:03:40.013Z,100.00
2023-04-13T18:06:08.157Z,100.00
2023-04-13T18:08:35.917Z,100.00
2023-04-13T18:11:05.075Z,100.00
2023-04-13T18:13:34.297Z,100.00
2023-04-13T18:16:02.265Z,100.00
2023-04-13T18:18:36.873Z,100.00
2023-04-13T18:21:04.784Z,100.00
2023-04-13T18:23:33.269Z,100.00
2023-04-13T18:26:02.997Z,100.00
2023-04-13T18:28:32.028Z,100.00
2023-04-13T18:31:01.036Z,100.00
2023-04-13T18:33:29.601Z,100.00
2023-04-13T18:35:57.280Z,100.00
2023-04-13T18:38:25.287Z,100.00
2023-04-13T18:40:53.046Z,100.00
2023-04-13T18:43:20.926Z,100.00
2023-04-13T18:45:50.018Z,100.00
2023-04-13T18:48:17.886Z,100.00
2023-04-13T18:50:45.586Z,100.00
2023-04-13T18:53:13.298Z,100.00
2023-04-13T18:55:41.025Z,100.00
2023-04-13T18:58:08.798Z,100.00
2023-04-13T19:00:39.715Z,100.00
2023-04-13T19:03:09.046Z,100.00
2023-04-13T19:05:37.018Z,100.00
2023-04-13T19:08:07.252Z,100.00
2023-04-13T19:10:35.131Z,100.00
2023-04-13T19:13:03.201Z,100.00
2023-04-13T19:15:31.855Z,100.00
2023-04-13T19:18:01.175Z,100.00
2023-04-13T19:20:30.769Z,100.00
2023-04-13T19:22:58.567Z,100.00
2023-04-13T19:25:26.308Z,100.00
2023-04-13T19:27:54.160Z,100.00
2023-04-13T19:30:22.140Z,100.00
2023-04-13T19:32:50.961Z,100.00
2023-04-13T19:35:21.567Z,100.00
2023-04-13T19:37:50.966Z,100.00
2023-04-13T19:40:19.055Z,100.00
2023-04-13T19:42:48.288Z,100.00
2023-04-13T19:45:16.458Z,100.00
2023-04-13T19:47:44.528Z,100.00
2023-04-13T19:50:13.920Z,100.00
2023-04-13T19:52:42.451Z,100.00
2023-04-13T19:55:12.097Z,100.00
2023-04-13T19:57:42.329Z,100.00
2023-04-13T20:00:19.120Z,100.00
2023-04-13T20:02:49.715Z,100.00
2023-04-13T20:05:18.810Z,100.00
2023-04-13T20:07:46.855Z,100.00
2023-04-13T20:10:15.980Z,100.00
2023-04-13T20:12:43.678Z,100.00
2023-04-13T20:15:11.807Z,100.00
2023-04-13T20:17:39.557Z,100.00
2023-04-13T20:20:10.128Z,100.00
2023-04-13T20:22:37.902Z,100.00
2023-04-13T20:25:06.369Z,100.00
2023-04-13T20:27:37.754Z,100.00
2023-04-13T20:30:06.210Z,100.00
2023-04-13T20:32:34.204Z,100.00
2023-04-13T20:35:02.791Z,100.00
2023-04-13T20:37:30.440Z,100.00
2023-04-13T20:39:58.297Z,100.00
2023-04-13T20:42:26.034Z,100.00
2023-04-13T20:44:57.561Z,100.00
2023-04-13T20:47:26.442Z,100.00
2023-04-13T20:49:57.246Z,100.00
2023-04-13T20:52:25.999Z,100.00
2023-04-13T20:54:54.506Z,100.00
2023-04-13T20:57:22.494Z,100.00
2023-04-13T20:59:51.738Z,100.00
2023-04-13T21:02:21.217Z,100.00
2023-04-13T21:04:49.100Z,100.00
2023-04-13T21:07:16.799Z,100.00
2023-04-13T21:09:44.521Z,100.00
2023-04-13T21:12:12.220Z,100.00
2023-04-13T21:14:39.945Z,100.00
2023-04-13T21:17:08.104Z,100.00
2023-04-13T21:19:37.924Z,100.00
2023-04-13T21:22:06.069Z,100.00
2023-04-13T21:24:33.829Z,100.00
2023-04-13T21:27:01.566Z,100.00
2023-04-13T21:29:29.304Z,100.00
2023-04-13T21:31:57.118Z,100.00
2023-04-13T21:34:27.265Z,100.00
2023-04-13T21:36:56.538Z,100.00
2023-04-13T21:39:24.491Z,100.00
2023-04-13T21:41:52.217Z,100.00
2023-04-13T21:44:29.423Z,100.00
2023-04-13T21:46:58.371Z,100.00
2023-04-13T21:49:26.124Z,100.00
2023-04-13T21:51:53.779Z,100.00
2023-04-13T21:54:22.811Z,100.00
2023-04-13T21:56:50.619Z,100.00
2023-04-13T21:59:26.646Z,100.00
2023-04-13T22:01:54.583Z,100.00
2023-04-13T22:04:22.502Z,100.00
2023-04-13T22:06:50.474Z,100.00
2023-04-13T22:09:18.144Z,100.00
2023-04-13T22:11:47.226Z,100.00
2023-04-13T22:14:14.941Z,100.00
2023-04-13T22:16:42.606Z,100.00
2023-04-13T22:19:10.710Z,100.00
2023-04-13T22:21:38.698Z,100.00
2023-04-13T22:24:06.658Z,100.00
2023-04-13T22:26:34.417Z,100.00
2023-04-13T22:29:03.578Z,100.00
2023-04-13T22:31:31.327Z,100.00
2023-04-13T22:33:59.131Z,100.00
2023-04-13T22:36:27.069Z,100.00
2023-04-13T22:38:54.861Z,100.00
2023-04-13T22:41:22.537Z,100.00
2023-04-13T22:43:50.269Z,100.00
2023-04-13T22:46:19.452Z,100.00
2023-04-13T22:48:48.225Z,100.00
2023-04-13T22:51:16.296Z,100.00
2023-04-13T22:59:10.033Z,100.00
2023-04-13T23:01:37.744Z,100.00
2023-04-13T23:04:06.419Z,100.00
2023-04-13T23:06:35.926Z,100.00
2023-04-13T23:09:03.658Z,100.00
2023-04-13T23:11:31.395Z,100.00
2023-04-13T23:14:00.607Z,100.00
2023-04-13T23:16:29.779Z,100.00
2023-04-13T23:18:57.684Z,100.00
2023-04-13T23:21:26.410Z,100.00
2023-04-13T23:23:54.455Z,100.00
2023-04-13T23:26:22.302Z,100.00
2023-04-13T23:28:50.092Z,100.00
2023-04-13T23:31:17.852Z,100.00
2023-04-13T23:33:46.940Z,100.00
2023-04-13T23:36:14.869Z,100.00
2023-04-13T23:38:42.632Z,100.00
2023-04-13T23:41:10.311Z,100.00
2023-04-13T23:43:37.970Z,100.00
2023-04-13T23:46:05.791Z,100.00
2023-04-13T23:48:33.579Z,100.00
2023-04-13T23:51:02.764Z,100.00
2023-04-13T23:53:30.556Z,100.00
2023-04-13T23:55:58.744Z,100.00
2023-04-13T23:58:26.485Z,100.00
